Denver, Colorado
Traffic Map
Current Weather Conditions
Denver, Colorado
Scattered Clouds
Scattered Clouds
-4°
Feels Like: -8°
Wind Chill: -8° Ceiling: Unl
Heat Index: -4° Visibility: 7mi
Dew Point: -5° Wind: 6mph
Humidity: 93% Direction: 210° (SSW)
Pressure: 30.05in Gusts: 0mph
Raw Report DataKBKF 191058Z 21005KT 7SM FEW070 SCT220 M04/M05 A3005 RMK AO2A SLP191 T10421052
Traffic Incident Summary
Active as of:
Severity:
Category:
InformationThere was an issue retrieving the traffic information for this location. Please try a different location or try again shortly.
Advertisements
Track Severe Weather on mobile